Time;durP1;ratioP1;P1;durP2;ratioP2;P2;SDS_P1;SDS_P2;PMS_P1;PMS_P2;Temp;Humidity;BMP_temperature;BMP_pressure;BME280_temperature;BME280_humidity;BME280_pressure;Samples;Min_cycle;Max_cycle;Signal;HPM_P1;HPM_P2
2022/10/21 00:02:00;;;;;;;15.00;9.10;;;5.60;99.90;;;;;;5113712;28;20208;-68
2022/10/21 00:04:26;;;;;;;14.83;9.20;;;5.60;99.90;;;;;;5113882;28;20208;-69
2022/10/21 00:06:53;;;;;;;14.23;8.97;;;5.60;99.90;;;;;;5113164;27;20215;-68
2022/10/21 00:09:20;;;;;;;14.00;9.30;;;5.60;99.90;;;;;;5111897;28;20215;-68
2022/10/21 00:11:48;;;;;;;11.30;8.30;;;5.70;99.90;;;;;;5110347;28;20208;-68
2022/10/21 00:14:15;;;;;;;11.67;8.37;;;5.70;99.90;;;;;;5110724;27;20227;-68
2022/10/21 00:16:42;;;;;;;11.43;8.20;;;5.60;99.90;;;;;;5113145;28;20211;-68
2022/10/21 00:19:08;;;;;;;11.43;8.20;;;5.60;99.90;;;;;;5112038;28;20196;-68
2022/10/21 00:21:36;;;;;;;13.40;9.07;;;5.60;99.90;;;;;;5112410;28;20607;-68
2022/10/21 00:24:03;;;;;;;14.20;9.20;;;5.60;99.90;;;;;;5110999;28;20243;-68
2022/10/21 00:26:30;;;;;;;13.27;8.97;;;5.60;99.90;;;;;;5112774;28;20576;-69
2022/10/21 00:28:58;;;;;;;13.57;8.67;;;5.50;99.90;;;;;;5108538;28;20211;-68
2022/10/21 00:31:26;;;;;;;14.47;9.23;;;5.50;99.90;;;;;;5112170;28;20211;-68
2022/10/21 00:33:53;;;;;;;14.30;9.53;;;5.50;99.90;;;;;;5111766;28;20226;-67
2022/10/21 00:36:20;;;;;;;12.37;9.00;;;5.50;99.90;;;;;;5110604;27;20203;-68
2022/10/21 00:38:48;;;;;;;14.50;8.80;;;5.40;99.90;;;;;;5111355;27;20435;-68
2022/10/21 00:41:17;;;;;;;12.43;9.03;;;5.50;99.90;;;;;;5111330;27;20245;-68
2022/10/21 00:43:55;;;;;;;13.80;8.70;;;5.40;99.90;;;;;;5108603;28;20664;-68
2022/10/21 00:46:33;;;;;;;13.87;8.80;;;5.40;99.90;;;;;;5113067;28;20200;-68
2022/10/21 00:49:02;;;;;;;13.77;9.80;;;5.50;99.90;;;;;;5113260;28;20200;-67
2022/10/21 00:51:30;;;;;;;18.47;8.87;;;5.40;99.90;;;;;;5111125;27;20219;-68
2022/10/21 00:53:57;;;;;;;14.17;9.30;;;5.40;99.90;;;;;;5111963;28;20219;-67
2022/10/21 00:56:26;;;;;;;13.80;9.33;;;5.40;99.90;;;;;;5112570;28;20204;-68
2022/10/21 00:58:57;;;;;;;12.70;8.83;;;5.40;99.90;;;;;;5111601;27;20208;-69
2022/10/21 01:01:25;;;;;;;14.33;9.30;;;5.40;99.90;;;;;;5112069;28;20200;-68
2022/10/21 01:03:51;;;;;;;14.53;8.87;;;5.30;99.90;;;;;;5111985;28;20231;-68
2022/10/21 01:06:21;;;;;;;13.20;9.17;;;5.30;99.90;;;;;;5112306;28;20246;-68
2022/10/21 01:08:48;;;;;;;17.23;9.93;;;5.30;99.90;;;;;;5112288;28;20220;-68
2022/10/21 01:11:19;;;;;;;15.50;8.90;;;5.20;99.90;;;;;;5112335;28;20738;-68
2022/10/21 01:14:03;;;;;;;14.13;9.50;;;5.20;99.90;;;;;;5108399;28;20644;-68
2022/10/21 01:16:36;;;;;;;15.10;9.40;;;5.20;99.90;;;;;;5107847;28;20213;-68
2022/10/21 01:19:19;;;;;;;15.93;9.17;;;5.10;99.90;;;;;;5109132;28;20687;-67
2022/10/21 01:21:53;;;;;;;14.37;10.07;;;5.10;99.90;;;;;;5109945;28;20196;-69
2022/10/21 01:24:53;;;;;;;14.87;9.53;;;5.10;99.90;;;;;;5107456;28;20203;-69
2022/10/21 01:27:28;;;;;;;13.23;8.43;;;5.10;99.90;;;;;;5107773;28;20229;-67
2022/10/21 01:30:21;;;;;;;14.53;9.60;;;5.00;99.90;;;;;;5108830;28;20544;-68
2022/10/21 01:33:11;;;;;;;13.13;8.80;;;5.10;99.90;;;;;;5109306;28;20586;-68
2022/10/21 01:35:46;;;;;;;12.03;8.33;;;5.00;99.90;;;;;;5109515;28;20293;-69
2022/10/21 01:38:22;;;;;;;12.87;8.83;;;5.10;99.90;;;;;;5110656;28;20210;-67
2022/10/21 01:40:55;;;;;;;14.33;8.50;;;5.10;99.90;;;;;;5109202;28;20603;-67
2022/10/21 01:43:34;;;;;;;15.60;8.93;;;5.20;99.90;;;;;;5109926;28;20207;-69
2022/10/21 01:46:04;;;;;;;12.77;8.00;;;5.10;99.90;;;;;;5104914;28;20652;-68
2022/10/21 01:48:37;;;;;;;15.43;9.17;;;5.10;99.90;;;;;;5111531;28;20208;-68
2022/10/21 01:51:06;;;;;;;16.00;8.53;;;5.20;99.90;;;;;;5103585;28;20863;-68
2022/10/21 01:53:41;;;;;;;13.03;8.83;;;5.10;99.90;;;;;;5110427;28;20207;-68
2022/10/21 01:56:09;;;;;;;13.70;8.03;;;5.10;99.90;;;;;;5109833;28;20211;-67
2022/10/21 01:58:39;;;;;;;14.87;9.50;;;5.10;99.90;;;;;;5109338;28;20663;-68
2022/10/21 02:01:08;;;;;;;12.30;8.47;;;5.10;99.90;;;;;;5111312;28;20230;-69
2022/10/21 02:03:40;;;;;;;11.70;8.23;;;5.00;99.90;;;;;;5111158;28;20200;-69
2022/10/21 02:06:07;;;;;;;12.60;9.07;;;5.00;99.90;;;;;;5115203;28;20234;-69
2022/10/21 02:08:34;;;;;;;11.33;8.03;;;5.00;99.90;;;;;;5111995;27;20219;-69
2022/10/21 02:11:05;;;;;;;14.47;9.07;;;5.00;99.90;;;;;;5110536;28;20694;-68
2022/10/21 02:13:38;;;;;;;16.33;9.73;;;5.00;99.90;;;;;;5108717;28;20564;-68
2022/10/21 02:16:09;;;;;;;20.27;8.90;;;4.90;99.90;;;;;;5108339;28;20243;-69
2022/10/21 02:18:37;;;;;;;15.90;8.97;;;4.90;99.90;;;;;;5106433;28;20200;-67
2022/10/21 02:21:08;;;;;;;15.33;10.40;;;4.80;99.90;;;;;;5109296;28;20215;-68
2022/10/21 02:23:42;;;;;;;17.60;10.07;;;4.90;99.90;;;;;;5109543;28;20240;-68
2022/10/21 02:26:09;;;;;;;12.40;8.70;;;4.80;99.90;;;;;;5110405;28;20196;-69
2022/10/21 02:28:36;;;;;;;16.50;10.33;;;4.80;99.90;;;;;;5109060;28;20208;-68
2022/10/21 02:31:15;;;;;;;15.23;9.93;;;4.70;99.90;;;;;;5106517;28;20208;-68
2022/10/21 02:33:51;;;;;;;13.93;9.03;;;4.60;99.90;;;;;;5108853;28;20682;-68
2022/10/21 02:36:28;;;;;;;15.43;9.30;;;4.60;99.90;;;;;;5110389;28;20212;-68
2022/10/21 02:39:00;;;;;;;13.30;8.87;;;4.60;99.90;;;;;;5109675;28;20195;-68
2022/10/21 02:41:28;;;;;;;14.27;8.70;;;4.60;99.90;;;;;;5107815;28;20205;-68
2022/10/21 02:43:59;;;;;;;13.03;9.13;;;4.60;99.90;;;;;;5109978;28;20208;-68
2022/10/21 02:46:31;;;;;;;14.60;9.40;;;4.50;99.90;;;;;;5110161;28;20203;-68
2022/10/21 02:48:59;;;;;;;13.77;8.67;;;4.40;99.90;;;;;;5108245;28;20196;-68
2022/10/21 02:51:26;;;;;;;15.83;9.57;;;4.40;99.90;;;;;;5109894;28;20215;-69
2022/10/21 02:53:52;;;;;;;14.20;9.60;;;4.30;99.90;;;;;;5111043;28;20215;-68
2022/10/21 02:56:19;;;;;;;15.63;10.07;;;4.30;99.90;;;;;;5110090;28;20228;-67
2022/10/21 02:58:46;;;;;;;15.77;10.00;;;4.30;99.90;;;;;;5109836;27;20207;-68
2022/10/21 03:01:13;;;;;;;15.83;9.83;;;4.30;99.90;;;;;;5110419;28;20207;-67
2022/10/21 03:03:39;;;;;;;13.30;9.37;;;4.20;99.90;;;;;;5108142;28;20215;-68
2022/10/21 03:06:07;;;;;;;14.07;9.93;;;4.20;99.90;;;;;;5110322;28;20236;-68
2022/10/21 03:08:34;;;;;;;16.17;9.90;;;4.20;99.90;;;;;;5110412;28;20219;-68
2022/10/21 03:11:01;;;;;;;17.80;10.83;;;4.10;99.90;;;;;;5110636;28;20211;-69
2022/10/21 03:13:28;;;;;;;16.17;10.00;;;4.10;99.90;;;;;;5108821;28;20231;-67
2022/10/21 03:15:54;;;;;;;16.13;10.77;;;4.10;99.90;;;;;;5107636;28;20457;-68
2022/10/21 03:18:21;;;;;;;15.47;10.00;;;4.10;99.90;;;;;;5107992;28;20204;-68
2022/10/21 03:20:49;;;;;;;13.33;9.07;;;4.00;99.90;;;;;;5108076;28;20223;-68
2022/10/21 03:23:17;;;;;;;13.57;9.67;;;4.10;99.90;;;;;;5108273;28;20255;-67
2022/10/21 03:25:44;;;;;;;14.93;9.17;;;4.00;99.90;;;;;;5108238;28;20224;-67
2022/10/21 03:28:11;;;;;;;16.00;9.73;;;4.10;99.90;;;;;;5108456;28;20566;-68
2022/10/21 03:30:38;;;;;;;15.37;10.20;;;4.00;99.90;;;;;;5109389;28;20227;-68
2022/10/21 03:33:05;;;;;;;17.97;10.87;;;4.00;99.90;;;;;;5108660;28;20707;-68
2022/10/21 03:35:31;;;;;;;14.23;9.30;;;4.10;99.90;;;;;;5109898;28;20640;-68
2022/10/21 03:37:58;;;;;;;16.33;10.03;;;4.00;99.90;;;;;;5106190;28;20206;-68
2022/10/21 03:40:28;;;;;;;16.10;10.40;;;4.00;99.90;;;;;;5108613;28;20644;-68
2022/10/21 03:42:55;;;;;;;15.47;10.00;;;4.10;99.90;;;;;;5108764;28;20215;-68
2022/10/21 03:45:22;;;;;;;17.27;10.17;;;4.00;99.90;;;;;;5107701;28;20222;-68
2022/10/21 03:47:49;;;;;;;13.20;9.00;;;4.00;99.90;;;;;;5109544;28;20663;-68
2022/10/21 03:50:15;;;;;;;12.10;8.83;;;4.00;99.90;;;;;;5099651;28;20204;-69
2022/10/21 03:52:42;;;;;;;13.03;8.70;;;3.90;99.90;;;;;;5108301;28;20451;-67
2022/10/21 03:55:09;;;;;;;13.70;9.57;;;3.90;99.90;;;;;;5105188;28;20235;-68
2022/10/21 03:57:37;;;;;;;14.33;8.70;;;3.90;99.90;;;;;;5102979;28;20226;-68
2022/10/21 04:00:05;;;;;;;14.63;10.00;;;3.90;99.90;;;;;;5103927;28;20218;-67
2022/10/21 04:02:32;;;;;;;16.07;9.60;;;3.80;99.90;;;;;;5101404;28;20210;-68
2022/10/21 04:04:58;;;;;;;14.93;9.83;;;3.80;99.90;;;;;;5108394;28;20746;-67
2022/10/21 04:07:25;;;;;;;18.07;10.47;;;3.80;99.90;;;;;;5109405;28;20204;-68
2022/10/21 04:09:52;;;;;;;15.80;10.67;;;3.70;99.90;;;;;;5108270;28;20656;-68
2022/10/21 04:12:18;;;;;;;18.83;10.07;;;3.70;99.90;;;;;;5108756;28;20200;-67
2022/10/21 04:14:46;;;;;;;16.07;10.00;;;3.70;99.90;;;;;;5108567;28;20601;-68
2022/10/21 04:17:13;;;;;;;15.73;10.07;;;3.70;99.90;;;;;;5108169;28;20208;-67
2022/10/21 04:19:40;;;;;;;15.13;9.43;;;3.70;99.90;;;;;;5108440;28;20644;-68
2022/10/21 04:22:07;;;;;;;14.07;9.10;;;3.70;99.90;;;;;;5107724;28;20231;-67
2022/10/21 04:24:33;;;;;;;14.13;9.63;;;3.70;99.90;;;;;;5106804;28;20219;-67
2022/10/21 04:27:00;;;;;;;14.07;9.17;;;3.80;99.90;;;;;;5107260;28;20207;-68
2022/10/21 04:29:27;;;;;;;15.67;9.30;;;3.70;99.90;;;;;;5105935;28;20550;-69
2022/10/21 04:31:55;;;;;;;13.83;8.33;;;3.70;99.90;;;;;;5110486;28;20212;-69
2022/10/21 04:34:22;;;;;;;15.37;9.13;;;3.70;99.90;;;;;;5112243;28;20211;-68
2022/10/21 04:36:48;;;;;;;13.10;8.67;;;3.70;99.90;;;;;;5111289;28;20596;-68
2022/10/21 04:39:15;;;;;;;13.87;8.63;;;3.80;99.90;;;;;;5106451;28;20208;-66
2022/10/21 04:41:43;;;;;;;13.33;8.27;;;3.80;99.90;;;;;;5105998;28;21931;-67
2022/10/21 04:44:10;;;;;;;13.43;8.90;;;3.80;99.90;;;;;;5109184;28;20298;-68
2022/10/21 04:46:36;;;;;;;13.73;9.20;;;3.80;99.90;;;;;;5103516;28;20953;-68
2022/10/21 04:49:04;;;;;;;17.05;9.98;;;3.80;99.90;;;;;;5103035;28;20446;-68
2022/10/21 04:51:31;;;;;;;13.25;8.60;;;3.80;99.90;;;;;;5110656;28;20320;-68
2022/10/21 04:53:58;;;;;;;14.43;10.70;;;3.80;99.90;;;;;;5108199;28;20462;-68
2022/10/21 04:56:25;;;;;;;12.83;9.83;;;3.90;99.90;;;;;;5110857;27;20591;-68
2022/10/21 04:58:51;;;;;;;15.27;11.50;;;3.90;99.90;;;;;;5105674;28;20978;-73
2022/10/21 05:01:18;;;;;;;17.50;10.27;;;3.90;99.90;;;;;;5107845;28;20443;-70
2022/10/21 05:03:45;;;;;;;15.80;9.80;;;3.80;99.90;;;;;;5110557;28;20207;-68
2022/10/21 05:06:13;;;;;;;14.33;9.13;;;3.90;99.90;;;;;;5108737;28;20676;-72
2022/10/21 05:08:40;;;;;;;12.70;8.77;;;3.90;99.90;;;;;;5109370;28;20223;-68
2022/10/21 05:11:06;;;;;;;13.30;8.63;;;3.90;99.90;;;;;;5110986;28;20212;-72
2022/10/21 05:13:33;;;;;;;14.50;9.13;;;3.90;99.90;;;;;;5109561;28;20208;-72
2022/10/21 05:16:01;;;;;;;12.80;8.60;;;3.90;99.90;;;;;;5107612;28;20226;-71
2022/10/21 05:18:28;;;;;;;16.20;9.00;;;3.90;99.90;;;;;;5110877;28;20575;-71
2022/10/21 05:20:55;;;;;;;13.53;8.70;;;3.90;99.90;;;;;;5111812;28;20211;-72
2022/10/21 05:23:24;;;;;;;16.13;8.80;;;3.80;99.90;;;;;;5112047;28;20943;-69
2022/10/21 05:25:51;;;;;;;13.70;8.47;;;3.80;99.90;;;;;;5110847;28;20203;-69
2022/10/21 05:28:18;;;;;;;15.40;9.60;;;3.80;99.90;;;;;;5112834;28;20206;-69
2022/10/21 05:30:45;;;;;;;13.57;9.13;;;3.80;99.90;;;;;;5110569;27;20766;-70
2022/10/21 05:33:12;;;;;;;14.13;9.07;;;3.80;99.90;;;;;;5107039;28;20767;-69
2022/10/21 05:35:39;;;;;;;12.67;8.43;;;3.80;99.90;;;;;;5110921;28;20216;-69
2022/10/21 05:38:06;;;;;;;12.37;8.53;;;3.80;99.90;;;;;;5112107;28;20215;-68
2022/10/21 05:40:34;;;;;;;12.43;8.37;;;3.80;99.90;;;;;;5112307;28;20245;-69
2022/10/21 05:43:01;;;;;;;14.07;9.07;;;3.80;99.90;;;;;;5110298;28;20204;-70
2022/10/21 05:45:28;;;;;;;13.57;9.17;;;3.80;99.90;;;;;;5111054;28;20203;-69
2022/10/21 05:47:54;;;;;;;14.20;8.93;;;3.80;99.90;;;;;;5107341;28;20211;-69
2022/10/21 05:50:21;;;;;;;13.07;8.67;;;3.90;99.90;;;;;;5110884;28;20204;-71
2022/10/21 05:52:48;;;;;;;18.80;9.07;;;4.00;99.90;;;;;;5110877;28;20548;-70
2022/10/21 05:55:15;;;;;;;13.60;8.40;;;4.00;99.90;;;;;;5106069;28;20211;-71
2022/10/21 05:57:43;;;;;;;15.90;9.50;;;4.00;99.90;;;;;;5107344;28;20204;-70
2022/10/21 06:00:11;;;;;;;14.00;8.37;;;4.00;99.90;;;;;;5107896;28;20212;-71
2022/10/21 06:02:38;;;;;;;12.40;8.67;;;4.10;99.90;;;;;;5108807;28;20691;-71
2022/10/21 06:05:05;;;;;;;12.97;8.87;;;4.10;99.90;;;;;;5108725;28;20236;-70
2022/10/21 06:07:32;;;;;;;13.97;8.53;;;4.10;99.90;;;;;;5111792;28;20215;-70
2022/10/21 06:09:59;;;;;;;14.13;8.73;;;4.10;99.90;;;;;;5111649;28;20199;-70
2022/10/21 06:12:26;;;;;;;12.40;8.30;;;4.10;99.90;;;;;;5107363;28;20208;-71
2022/10/21 06:14:54;;;;;;;13.97;8.63;;;4.10;99.90;;;;;;5112260;28;20227;-70
2022/10/21 06:17:21;;;;;;;13.07;7.93;;;4.10;99.90;;;;;;5110789;28;20255;-71
2022/10/21 06:19:48;;;;;;;15.57;7.80;;;4.20;99.90;;;;;;5109976;28;20211;-71
2022/10/21 06:22:15;;;;;;;12.47;8.37;;;4.20;99.90;;;;;;5107210;28;20601;-74
2022/10/21 06:24:42;;;;;;;13.03;8.50;;;4.20;99.90;;;;;;5108117;28;20219;-70
2022/10/21 06:27:08;;;;;;;14.20;8.60;;;4.20;99.90;;;;;;5105448;28;20700;-72
2022/10/21 06:29:35;;;;;;;11.37;8.30;;;4.20;99.90;;;;;;5112723;28;20546;-70
2022/10/21 06:32:03;;;;;;;11.37;7.50;;;4.30;99.90;;;;;;5110378;28;20204;-70
2022/10/21 06:34:30;;;;;;;13.83;8.40;;;4.20;99.90;;;;;;5111792;28;20304;-71
2022/10/21 06:36:57;;;;;;;11.97;7.77;;;4.30;99.90;;;;;;5112058;28;20228;-70
2022/10/21 06:39:24;;;;;;;10.10;7.33;;;4.30;99.90;;;;;;5110346;28;20199;-69
2022/10/21 06:41:51;;;;;;;14.57;7.83;;;4.30;99.90;;;;;;5105955;28;20200;-68
2022/10/21 06:44:17;;;;;;;11.80;7.93;;;4.40;99.90;;;;;;5109837;28;20211;-72
2022/10/21 06:46:44;;;;;;;12.53;8.53;;;4.50;99.90;;;;;;5109935;28;20208;-70
2022/10/21 06:49:12;;;;;;;14.33;9.37;;;4.60;99.90;;;;;;5110651;28;20208;-70
2022/10/21 06:51:39;;;;;;;16.03;8.57;;;4.80;99.90;;;;;;5107726;28;20204;-72
2022/10/21 06:54:06;;;;;;;12.20;8.47;;;4.90;99.90;;;;;;5108724;28;20195;-71
2022/10/21 06:56:32;;;;;;;13.53;7.83;;;5.10;99.90;;;;;;5110170;28;20711;-70
2022/10/21 06:59:00;;;;;;;14.77;7.37;;;5.20;99.90;;;;;;5109728;28;20219;-71
2022/10/21 07:01:31;;;;;;;11.43;7.80;;;5.30;99.90;;;;;;5108055;28;20636;-70
2022/10/21 07:03:58;;;;;;;10.03;7.20;;;5.40;99.90;;;;;;5106799;28;20341;-71
2022/10/21 07:06:27;;;;;;;11.90;7.30;;;5.50;99.90;;;;;;5110315;28;20223;-71
2022/10/21 07:08:53;;;;;;;14.87;7.93;;;5.60;99.90;;;;;;5109099;28;20211;-71
2022/10/21 07:11:20;;;;;;;11.23;7.67;;;5.70;99.90;;;;;;5108648;28;20204;-71
2022/10/21 07:13:47;;;;;;;14.17;7.60;;;5.80;99.90;;;;;;5109351;28;20215;-72
2022/10/21 07:16:18;;;;;;;14.47;8.13;;;5.90;99.90;;;;;;5106439;28;20550;-72
2022/10/21 07:18:45;;;;;;;10.30;6.90;;;6.00;99.90;;;;;;5108064;28;20199;-72
2022/10/21 07:21:16;;;;;;;15.77;7.47;;;6.20;99.90;;;;;;5106986;28;20634;-75
2022/10/21 07:23:46;;;;;;;12.23;7.70;;;6.30;99.90;;;;;;5098701;28;20223;-72
2022/10/21 07:26:14;;;;;;;12.33;7.73;;;6.40;99.90;;;;;;5107026;28;20200;-71
2022/10/21 07:28:45;;;;;;;11.00;7.77;;;6.60;99.90;;;;;;5092108;28;20204;-72
2022/10/21 07:31:12;;;;;;;11.23;7.43;;;6.80;99.90;;;;;;5105643;28;20709;-72
2022/10/21 07:33:39;;;;;;;11.70;7.50;;;7.00;99.90;;;;;;5103994;28;20196;-70
2022/10/21 07:36:09;;;;;;;12.47;7.70;;;7.20;99.90;;;;;;5107612;28;20706;-72
2022/10/21 07:38:37;;;;;;;10.93;7.43;;;7.30;99.90;;;;;;5106467;28;20227;-72
2022/10/21 07:41:05;;;;;;;13.90;6.90;;;7.50;99.90;;;;;;5106146;28;20218;-72
2022/10/21 07:43:32;;;;;;;11.63;7.77;;;7.60;99.90;;;;;;5105522;28;20208;-72
2022/10/21 07:45:59;;;;;;;11.00;7.57;;;7.80;99.90;;;;;;5109624;28;20412;-71
2022/10/21 07:48:26;;;;;;;7.67;6.27;;;7.90;99.90;;;;;;5105454;28;20215;-71
2022/10/21 07:50:53;;;;;;;12.27;7.57;;;8.00;99.90;;;;;;5106706;28;20234;-71
2022/10/21 07:53:24;;;;;;;9.10;7.20;;;8.00;99.90;;;;;;5105982;28;20412;-71
2022/10/21 07:56:01;;;;;;;13.67;7.33;;;8.00;99.90;;;;;;5109059;28;20343;-72
2022/10/21 07:58:30;;;;;;;12.20;8.13;;;8.00;99.90;;;;;;5107230;28;20211;-72
2022/10/21 08:00:58;;;;;;;14.53;7.60;;;8.00;99.90;;;;;;5106528;28;20204;-71
2022/10/21 08:03:25;;;;;;;18.77;7.63;;;8.10;99.90;;;;;;5108648;28;20267;-71
2022/10/21 08:05:52;;;;;;;14.70;7.10;;;8.00;99.90;;;;;;5105584;28;20243;-71
2022/10/21 08:08:20;;;;;;;16.37;8.20;;;8.00;99.90;;;;;;5105007;28;20199;-72
2022/10/21 08:10:47;;;;;;;13.00;7.13;;;8.00;99.90;;;;;;5109304;28;20204;-71
2022/10/21 08:13:14;;;;;;;10.13;7.40;;;8.00;99.90;;;;;;5107171;28;20222;-71
2022/10/21 08:15:43;;;;;;;10.37;7.03;;;7.90;99.90;;;;;;5112103;28;20459;-69
2022/10/21 08:18:10;;;;;;;9.37;6.83;;;7.90;99.90;;;;;;5112070;28;20235;-70
2022/10/21 08:20:38;;;;;;;15.37;8.00;;;7.90;99.90;;;;;;5108599;28;20215;-69
2022/10/21 08:23:06;;;;;;;11.47;7.03;;;8.00;99.90;;;;;;5107507;28;20227;-71
2022/10/21 08:25:32;;;;;;;14.67;7.43;;;8.10;99.90;;;;;;5110081;28;20230;-70
2022/10/21 08:27:59;;;;;;;11.67;7.03;;;8.30;99.90;;;;;;5111329;28;20560;-70
2022/10/21 08:30:28;;;;;;;14.20;7.43;;;8.40;99.90;;;;;;5111996;28;20203;-72
2022/10/21 08:32:57;;;;;;;10.83;6.97;;;8.60;99.90;;;;;;5111266;28;20733;-69
2022/10/21 08:35:23;;;;;;;11.20;7.33;;;8.70;99.90;;;;;;5111643;28;20204;-68
2022/10/21 08:37:50;;;;;;;11.33;6.63;;;8.70;99.90;;;;;;5108525;28;20223;-70
2022/10/21 08:40:18;;;;;;;12.03;7.40;;;8.80;99.90;;;;;;5104749;28;20204;-70
2022/10/21 08:42:45;;;;;;;9.43;6.97;;;8.90;99.90;;;;;;5108397;28;20594;-70
2022/10/21 08:45:19;;;;;;;9.50;7.17;;;9.00;99.90;;;;;;5105473;28;20209;-70
2022/10/21 08:47:51;;;;;;;11.93;7.00;;;9.30;99.90;;;;;;5104942;28;20210;-70
2022/10/21 08:50:22;;;;;;;11.30;6.83;;;9.60;99.90;;;;;;5106905;28;20203;-69
2022/10/21 08:52:52;;;;;;;11.87;6.90;;;10.00;99.90;;;;;;5107482;28;20208;-69
2022/10/21 08:55:22;;;;;;;7.67;6.40;;;10.10;99.90;;;;;;5106095;28;20628;-70
2022/10/21 08:57:52;;;;;;;9.43;7.20;;;10.10;99.90;;;;;;5110606;28;20220;-71
2022/10/21 09:00:22;;;;;;;13.30;6.77;;;10.00;99.90;;;;;;5110878;28;20203;-70
2022/10/21 09:03:15;;;;;;;12.07;7.10;;;9.90;99.90;;;;;;5112171;28;20740;-71
2022/10/21 09:06:04;;;;;;;13.87;6.77;;;9.80;99.90;;;;;;5106197;28;20238;-70
2022/10/21 09:08:35;;;;;;;11.87;7.17;;;9.70;99.90;;;;;;5103000;28;20204;-70
2022/10/21 09:11:08;;;;;;;16.13;7.00;;;9.70;99.90;;;;;;5100714;28;20207;-70
2022/10/21 09:13:51;;;;;;;9.17;6.60;;;9.60;99.90;;;;;;5104885;28;20212;-70
2022/10/21 09:16:23;;;;;;;12.10;6.33;;;9.80;99.90;;;;;;5101231;28;20204;-70
2022/10/21 09:18:59;;;;;;;13.60;6.70;;;10.20;99.90;;;;;;5108598;28;20200;-70
2022/10/21 09:21:38;;;;;;;18.03;6.80;;;11.50;99.90;;;;;;5108238;28;20200;-71
2022/10/21 09:24:08;;;;;;;8.13;6.40;;;13.40;99.90;;;;;;5107941;28;20722;-69
2022/10/21 09:26:41;;;;;;;7.97;5.70;;;15.30;99.90;;;;;;5109374;28;20960;-70
2022/10/21 09:29:23;;;;;;;8.10;6.33;;;16.40;94.40;;;;;;5110887;28;20211;-71
2022/10/21 09:31:50;;;;;;;7.97;6.50;;;17.10;90.30;;;;;;5105975;28;20199;-71
2022/10/21 09:34:22;;;;;;;10.20;6.27;;;17.50;82.50;;;;;;5105587;28;20204;-70
2022/10/21 09:36:52;;;;;;;10.23;6.25;;;17.60;78.60;;;;;;5108506;28;20548;-70
2022/10/21 09:39:27;;;;;;;7.78;5.68;;;18.00;77.90;;;;;;5107139;28;20625;-71
2022/10/21 09:41:58;;;;;;;8.40;6.78;;;19.00;73.80;;;;;;5110096;28;20227;-72
2022/10/21 09:44:25;;;;;;;7.47;6.40;;;19.60;66.40;;;;;;5102577;28;20219;-71
2022/10/21 09:46:54;;;;;;;9.73;5.80;;;20.00;63.00;;;;;;5107950;28;20207;-71
2022/10/21 09:49:27;;;;;;;8.52;6.18;;;20.70;65.30;;;;;;5105618;28;20212;-71
2022/10/21 09:51:58;;;;;;;8.60;6.05;;;21.40;58.50;;;;;;5103534;28;20208;-70
2022/10/21 09:54:27;;;;;;;8.68;5.82;;;21.10;57.00;;;;;;5107492;28;20211;-70
2022/10/21 09:56:59;;;;;;;8.38;6.05;;;21.00;57.70;;;;;;5107200;28;20580;-71
2022/10/21 09:59:25;;;;;;;8.02;5.80;;;21.20;56.10;;;;;;5102901;28;20576;-71
2022/10/21 10:01:53;;;;;;;8.25;6.15;;;22.00;57.00;;;;;;5103330;28;20748;-71
2022/10/21 10:04:29;;;;;;;8.43;5.85;;;23.00;53.50;;;;;;5106290;28;20209;-71
2022/10/21 10:06:57;;;;;;;8.25;6.35;;;23.20;51.50;;;;;;5102487;28;20199;-70
2022/10/21 10:09:29;;;;;;;8.90;6.00;;;23.00;51.30;;;;;;5103906;28;20262;-71
2022/10/21 10:12:00;;;;;;;9.48;6.38;;;22.60;51.70;;;;;;5106380;28;20209;-71
2022/10/21 10:14:32;;;;;;;6.85;5.97;;;22.60;51.80;;;;;;5105380;28;20226;-71
2022/10/21 10:17:21;;;;;;;6.82;5.75;;;22.50;51.70;;;;;;5101871;28;20216;-71
2022/10/21 10:20:14;;;;;;;6.68;5.97;;;22.70;51.60;;;;;;5102787;27;20204;-71
2022/10/21 10:22:43;;;;;;;8.63;6.30;;;23.30;51.00;;;;;;5102265;28;20836;-70
2022/10/21 10:25:20;;;;;;;7.40;6.10;;;23.70;49.50;;;;;;5102895;28;20648;-71
2022/10/21 10:27:48;;;;;;;6.82;6.10;;;23.60;48.70;;;;;;5103673;28;20218;-72
2022/10/21 10:30:16;;;;;;;7.78;5.80;;;23.90;49.10;;;;;;5099656;27;20207;-71
2022/10/21 10:32:44;;;;;;;8.50;6.43;;;24.30;48.30;;;;;;5106478;28;20577;-70
2022/10/21 10:35:21;;;;;;;9.32;5.90;;;24.80;47.50;;;;;;5106839;28;20196;-70
2022/10/21 10:37:50;;;;;;;9.90;6.45;;;25.20;46.90;;;;;;5101723;28;20212;-70
2022/10/21 10:40:22;;;;;;;6.65;5.85;;;26.10;45.70;;;;;;5104281;28;20577;-73
2022/10/21 10:42:52;;;;;;;8.07;5.95;;;27.20;45.00;;;;;;5105096;28;20203;-71
2022/10/21 10:45:21;;;;;;;8.35;5.85;;;28.50;41.60;;;;;;5110420;28;20269;-70
2022/10/21 10:47:52;;;;;;;8.88;6.80;;;29.70;40.40;;;;;;5106988;28;20196;-71
2022/10/21 10:50:41;;;;;;;7.97;6.70;;;30.70;39.00;;;;;;5109815;28;20191;-72
2022/10/21 10:53:23;;;;;;;6.15;5.57;;;32.30;37.60;;;;;;5108349;28;20659;-71
2022/10/21 10:55:55;;;;;;;8.93;6.20;;;33.70;34.70;;;;;;5110668;28;20628;-71
2022/10/21 10:58:25;;;;;;;6.00;5.40;;;34.40;33.40;;;;;;5109022;28;20219;-71
2022/10/21 11:00:55;;;;;;;9.05;6.05;;;35.10;32.70;;;;;;5110786;28;20234;-71
2022/10/21 11:03:29;;;;;;;6.78;6.00;;;36.10;31.70;;;;;;5106788;28;20204;-70
2022/10/21 11:06:05;;;;;;;6.70;5.60;;;36.40;30.20;;;;;;5104018;28;20603;-71
2022/10/21 11:08:38;;;;;;;9.95;6.00;;;35.30;30.00;;;;;;5102705;28;20232;-70
2022/10/21 11:11:10;;;;;;;6.45;5.82;;;34.50;31.30;;;;;;5100126;28;20204;-71
2022/10/21 11:13:39;;;;;;;8.15;5.90;;;34.60;31.40;;;;;;5098208;28;20210;-70
2022/10/21 11:16:18;;;;;;;6.97;5.70;;;35.20;30.50;;;;;;5111661;27;20218;-71
2022/10/21 11:18:52;;;;;;;6.22;5.63;;;34.90;29.90;;;;;;5101305;28;20239;-72
2022/10/21 11:21:38;;;;;;;6.32;5.53;;;34.20;30.20;;;;;;5107395;28;20203;-71
2022/10/21 11:24:30;;;;;;;7.38;5.88;;;32.40;31.40;;;;;;5105288;28;20224;-70
2022/10/21 11:27:03;;;;;;;7.78;6.07;;;30.30;33.30;;;;;;5116819;28;20196;-71
2022/10/21 11:29:44;;;;;;;11.40;6.20;;;28.80;35.80;;;;;;5105704;28;20208;-69
2022/10/21 11:32:26;;;;;;;9.05;6.70;;;28.10;36.70;;;;;;5105284;28;20449;-69
2022/10/21 11:35:05;;;;;;;9.43;5.95;;;28.00;37.80;;;;;;5104659;28;20208;-70
2022/10/21 11:37:52;;;;;;;8.85;6.50;;;29.30;36.60;;;;;;5106027;28;20322;-69
2022/10/21 11:40:29;;;;;;;7.10;5.82;;;30.70;35.10;;;;;;5110516;28;20223;-69
2022/10/21 11:43:02;;;;;;;7.63;6.00;;;31.70;33.80;;;;;;5108962;28;20655;-70
2022/10/21 11:45:37;;;;;;;7.60;6.28;;;32.10;33.20;;;;;;5112443;28;20204;-70
2022/10/21 11:48:18;;;;;;;15.18;7.13;;;31.30;33.10;;;;;;5110172;28;20219;-70
2022/10/21 11:50:54;;;;;;;7.47;5.95;;;30.90;35.10;;;;;;5111450;28;20280;-70
2022/10/21 11:53:37;;;;;;;5.88;5.38;;;31.80;34.10;;;;;;5109467;28;20595;-70
2022/10/21 11:56:15;;;;;;;7.20;5.80;;;33.00;32.70;;;;;;5110057;28;20211;-70
2022/10/21 11:58:53;;;;;;;8.88;5.55;;;33.40;32.00;;;;;;5107967;28;20214;-70
2022/10/21 12:01:39;;;;;;;5.82;5.22;;;33.50;31.20;;;;;;5107998;28;20204;-70
2022/10/21 12:04:23;;;;;;;7.25;6.18;;;31.90;31.80;;;;;;5109525;28;20200;-70
2022/10/21 12:07:04;;;;;;;7.75;6.07;;;29.80;33.80;;;;;;5109261;28;20608;-71
2022/10/21 12:09:37;;;;;;;7.05;6.20;;;27.60;35.70;;;;;;5113135;28;20200;-70
2022/10/21 12:12:09;;;;;;;12.05;6.50;;;25.20;38.20;;;;;;5111623;28;20203;-69
2022/10/21 12:14:40;;;;;;;9.65;6.60;;;23.20;40.40;;;;;;5109826;28;20220;-70
2022/10/21 12:17:12;;;;;;;7.72;6.50;;;21.60;43.00;;;;;;5111960;28;20574;-70
2022/10/21 12:19:38;;;;;;;8.13;6.25;;;20.20;45.30;;;;;;5112392;28;20561;-70
2022/10/21 12:22:07;;;;;;;6.80;6.10;;;19.00;47.50;;;;;;5110073;28;20211;-71
2022/10/21 12:24:43;;;;;;;8.23;6.53;;;18.10;49.40;;;;;;5110478;28;20211;-70
2022/10/21 12:27:19;;;;;;;7.40;5.93;;;17.20;51.20;;;;;;5108663;28;20200;-70
2022/10/21 12:30:00;;;;;;;10.00;6.60;;;16.50;53.00;;;;;;5113662;28;20203;-71
2022/10/21 12:32:32;;;;;;;8.75;6.68;;;15.80;54.40;;;;;;5109625;28;20226;-72
2022/10/21 12:34:58;;;;;;;9.80;6.78;;;15.30;56.00;;;;;;5103067;28;20202;-70
2022/10/21 12:38:03;;;;;;;8.17;6.07;;;14.80;57.30;;;;;;5110368;28;20223;-70
2022/10/21 12:40:37;;;;;;;11.63;6.20;;;14.50;58.60;;;;;;5103203;28;20207;-71
2022/10/21 12:43:13;;;;;;;9.07;6.33;;;14.30;59.30;;;;;;5108127;28;20582;-69
2022/10/21 12:45:41;;;;;;;8.43;6.67;;;14.10;60.10;;;;;;5108615;28;20196;-71
2022/10/21 12:48:30;;;;;;;8.37;5.53;;;13.90;61.10;;;;;;5113402;28;20298;-70
2022/10/21 12:50:58;;;;;;;11.93;6.43;;;13.60;62.40;;;;;;5106284;28;20285;-70
2022/10/21 12:53:36;;;;;;;7.67;5.93;;;13.40;63.90;;;;;;5112396;27;20200;-70
2022/10/21 12:56:04;;;;;;;9.00;6.30;;;13.10;64.90;;;;;;5108367;28;20244;-71
2022/10/21 12:58:37;;;;;;;6.70;5.67;;;12.90;65.90;;;;;;5108917;28;20592;-70
2022/10/21 13:01:06;;;;;;;8.67;5.93;;;12.70;66.50;;;;;;5104615;28;20292;-71
2022/10/21 13:03:54;;;;;;;9.67;6.30;;;12.50;67.90;;;;;;5110142;28;20223;-71